createdAt,value
2022-09-07T00:01:20.782Z,101018.47
2022-09-07T00:03:23.762Z,100856.59
2022-09-07T00:05:26.900Z,101013.69
2022-09-07T00:07:29.770Z,101004.69
2022-09-07T00:09:32.341Z,101028.56
2022-09-07T00:11:34.977Z,100996.19
2022-09-07T00:13:40.142Z,101037.63
2022-09-07T00:15:42.730Z,100998.31
2022-09-07T00:17:45.417Z,100899.56
2022-09-07T00:19:48.363Z,101014.50
2022-09-07T00:21:50.921Z,100956.38
2022-09-07T00:23:54.986Z,101037.63
2022-09-07T00:26:10.687Z,101024.88
2022-09-07T00:28:13.322Z,101011.88
2022-09-07T00:30:16.006Z,101004.69
2022-09-07T00:32:18.627Z,101022.25
2022-09-07T00:34:21.291Z,100988.22
2022-09-07T00:36:24.247Z,101011.09
2022-09-07T00:38:27.263Z,101015.34
2022-09-07T00:40:29.953Z,100993.53
2022-09-07T00:42:32.552Z,100896.41
2022-09-07T00:44:43.619Z,101017.97
2022-09-07T00:46:47.140Z,100993.81
2022-09-07T00:49:11.814Z,100992.50
2022-09-07T00:51:29.849Z,100980.28
2022-09-07T00:53:39.942Z,100924.53
2022-09-07T00:55:46.646Z,100987.97
2022-09-07T00:57:54.868Z,100993.00
2022-09-07T00:59:58.450Z,100990.34
2022-09-07T01:02:01.946Z,100961.41
2022-09-07T01:04:05.047Z,100976.81
2022-09-07T01:06:15.431Z,101006.84
2022-09-07T01:08:18.529Z,100978.19
2022-09-07T01:10:25.279Z,101008.72
2022-09-07T01:12:27.840Z,101008.44
2022-09-07T01:14:43.780Z,100980.84
2022-09-07T01:17:10.816Z,101013.22
2022-09-07T01:19:16.100Z,101003.69
2022-09-07T01:21:25.377Z,101006.59
2022-09-07T01:24:06.384Z,100944.72
2022-09-07T01:26:38.329Z,101003.13
2022-09-07T01:28:42.262Z,100976.06
2022-09-07T01:31:45.655Z,100999.97
2022-09-07T01:34:13.861Z,100989.88
2022-09-07T01:36:24.151Z,100986.44
2022-09-07T01:38:43.266Z,100972.91
2022-09-07T01:41:16.421Z,100984.84
2022-09-07T01:43:55.671Z,101005.81
2022-09-07T01:46:01.869Z,101001.53
2022-09-07T01:48:09.772Z,100998.91
2022-09-07T01:50:34.400Z,100966.75
2022-09-07T01:52:52.149Z,100997.84
2022-09-07T01:55:12.588Z,100980.25
2022-09-07T01:57:47.922Z,101002.34
2022-09-07T02:00:10.432Z,101005.25
2022-09-07T02:02:21.411Z,101006.34
2022-09-07T02:04:48.430Z,100979.19
2022-09-07T02:07:01.951Z,100976.25
2022-09-07T02:09:32.900Z,100974.94
2022-09-07T02:11:40.665Z,101007.59
2022-09-07T02:13:55.040Z,100991.66
2022-09-07T02:16:31.014Z,100988.22
2022-09-07T02:18:45.071Z,100952.06
2022-09-07T02:20:52.685Z,101005.47
2022-09-07T02:23:00.965Z,100937.47
2022-09-07T02:25:06.466Z,101011.03
2022-09-07T02:27:16.546Z,101002.00
2022-09-07T02:29:19.145Z,100959.22
2022-09-07T02:31:21.894Z,100979.41
2022-09-07T02:33:24.749Z,100983.13
2022-09-07T02:35:27.848Z,100865.16
2022-09-07T02:37:31.411Z,100903.97
2022-09-07T02:39:35.025Z,100969.31
2022-09-07T02:41:46.937Z,100988.16
2022-09-07T02:43:49.625Z,100978.34
2022-09-07T02:46:35.070Z,100970.13
2022-09-07T02:48:57.191Z,100982.34
2022-09-07T02:51:57.767Z,100987.63
2022-09-07T02:54:44.532Z,100976.75
2022-09-07T02:57:28.567Z,100972.78
2022-09-07T03:00:12.448Z,100973.81
2022-09-07T03:02:35.112Z,100986.03
2022-09-07T03:05:13.105Z,100975.94
2022-09-07T03:07:19.391Z,100964.75
2022-09-07T03:09:28.593Z,100955.19
2022-09-07T03:11:31.308Z,100983.63
2022-09-07T03:13:34.150Z,100924.06
2022-09-07T03:15:36.811Z,100920.09
2022-09-07T03:17:40.826Z,100947.19
2022-09-07T03:19:43.396Z,100867.69
2022-09-07T03:21:46.220Z,100953.56
2022-09-07T03:23:51.675Z,100922.75
2022-09-07T03:25:54.531Z,100946.91
2022-09-07T03:27:57.111Z,100914.19
2022-09-07T03:30:00.821Z,100969.78
2022-09-07T03:32:03.527Z,100970.03
2022-09-07T03:34:06.201Z,100933.88
2022-09-07T03:36:08.966Z,100951.38
2022-09-07T03:38:12.225Z,100934.06
2022-09-07T03:40:16.565Z,100966.28
2022-09-07T03:42:19.740Z,100964.13
2022-09-07T03:44:22.334Z,100902.72
2022-09-07T03:46:24.961Z,100935.69
2022-09-07T03:48:31.396Z,100954.03
2022-09-07T03:50:34.191Z,100923.47
2022-09-07T03:52:37.706Z,100956.19
2022-09-07T03:54:40.297Z,100920.00
2022-09-07T03:56:42.902Z,100947.69
2022-09-07T03:58:47.995Z,100936.72
2022-09-07T04:00:50.526Z,100913.59
2022-09-07T04:02:53.212Z,100914.91
2022-09-07T04:04:55.841Z,100931.13
2022-09-07T04:07:06.924Z,100898.38
2022-09-07T04:09:13.824Z,100955.00
2022-09-07T04:11:18.677Z,100959.22
2022-09-07T04:13:22.281Z,100887.72
2022-09-07T04:15:24.873Z,100942.19
2022-09-07T04:17:27.463Z,100888.22
2022-09-07T04:19:30.585Z,100898.31
2022-09-07T04:21:34.081Z,100938.44
2022-09-07T04:23:44.103Z,100921.97
2022-09-07T04:25:51.252Z,100949.34
2022-09-07T04:27:55.928Z,100952.00
2022-09-07T04:29:58.500Z,100954.91
2022-09-07T04:32:01.076Z,100933.66
2022-09-07T04:34:05.958Z,100956.00
2022-09-07T04:36:09.281Z,100952.25
2022-09-07T04:38:16.435Z,100943.78
2022-09-07T04:40:19.195Z,100869.06
2022-09-07T04:42:21.989Z,100917.19
2022-09-07T04:44:24.615Z,100941.41
2022-09-07T04:46:33.938Z,100937.97
2022-09-07T04:48:36.535Z,100916.75
2022-09-07T04:50:53.264Z,100898.38
2022-09-07T04:52:55.824Z,100864.13
2022-09-07T04:54:58.489Z,100897.63
2022-09-07T04:57:01.017Z,100900.00
2022-09-07T04:59:04.159Z,100931.91
2022-09-07T05:01:07.924Z,100922.38
2022-09-07T05:03:10.786Z,100903.00
2022-09-07T05:05:13.550Z,100851.19
2022-09-07T05:07:16.192Z,100857.59
2022-09-07T05:09:18.854Z,100867.69
2022-09-07T05:11:28.660Z,100893.97
2022-09-07T05:13:41.004Z,100914.72
2022-09-07T05:15:48.303Z,100912.84
2022-09-07T05:17:52.947Z,100851.22
2022-09-07T05:20:02.919Z,100855.75
2022-09-07T05:22:35.682Z,100884.69
2022-09-07T05:24:41.380Z,100896.09
2022-09-07T05:26:45.061Z,100791.72
2022-09-07T05:31:35.888Z,100790.97
2022-09-07T05:36:27.560Z,100728.88
2022-09-07T05:38:30.741Z,100916.41
2022-09-07T05:40:40.537Z,100884.53
2022-09-07T05:42:43.577Z,100896.25
2022-09-07T05:44:49.912Z,100886.97
2022-09-07T05:46:53.023Z,100892.06
2022-09-07T05:48:55.975Z,100909.06
2022-09-07T05:51:04.939Z,100920.75
2022-09-07T05:53:07.497Z,100906.97
2022-09-07T05:55:28.638Z,100908.34
2022-09-07T05:57:32.297Z,100857.09
2022-09-07T05:59:35.223Z,100871.44
2022-09-07T06:01:38.121Z,100727.91
2022-09-07T06:03:43.251Z,100760.56
2022-09-07T06:05:46.553Z,100757.91
2022-09-07T06:07:55.033Z,100918.69
2022-09-07T06:12:24.467Z,100774.09
2022-09-07T06:14:27.438Z,100834.84
2022-09-07T06:16:31.198Z,100717.34
2022-09-07T06:18:37.036Z,100928.13
2022-09-07T06:20:39.733Z,100902.38
2022-09-07T06:22:42.386Z,100913.25
2022-09-07T06:24:45.006Z,100819.88
2022-09-07T06:26:47.655Z,100900.22
2022-09-07T06:28:52.143Z,100930.47
2022-09-07T06:31:10.687Z,100851.56
2022-09-07T06:33:15.018Z,100870.53
2022-09-07T06:35:18.468Z,100872.75
2022-09-07T06:37:21.058Z,100771.16
2022-09-07T06:39:23.770Z,100810.78
2022-09-07T06:43:58.187Z,100868.88
2022-09-07T06:48:24.342Z,100879.31
2022-09-07T06:50:27.872Z,100809.72
2022-09-07T06:55:00.896Z,100876.66
2022-09-07T06:57:09.332Z,100912.63
2022-09-07T06:59:12.339Z,100798.16
2022-09-07T07:01:18.017Z,100889.91
2022-09-07T07:03:21.345Z,100862.69
2022-09-07T07:05:24.009Z,100852.06
2022-09-07T07:07:26.702Z,100764.69
2022-09-07T07:09:29.307Z,100843.69
2022-09-07T07:11:32.008Z,100865.41
2022-09-07T07:13:39.027Z,100866.78
2022-09-07T07:15:42.005Z,100885.59
2022-09-07T07:17:46.942Z,100787.13
2022-09-07T07:19:51.822Z,100857.63
2022-09-07T07:24:26.104Z,100873.31
2022-09-07T07:26:28.689Z,100885.50
2022-09-07T07:31:07.343Z,100639.94
2022-09-07T07:33:12.524Z,100749.84
2022-09-07T07:35:27.308Z,100881.31
2022-09-07T07:37:29.881Z,100780.41
2022-09-07T07:41:56.547Z,100746.00
2022-09-07T07:44:01.517Z,100773.34
2022-09-07T07:46:06.213Z,100745.03
2022-09-07T07:48:12.396Z,100838.09
2022-09-07T07:50:31.218Z,100755.13
2022-09-07T07:55:01.366Z,100673.25
2022-09-07T07:57:05.865Z,100654.91
2022-09-07T07:59:11.541Z,100653.47
2022-09-07T08:01:17.674Z,100780.94
2022-09-07T08:03:21.584Z,100863.41
2022-09-07T08:05:24.142Z,100732.13
2022-09-07T08:07:26.800Z,100794.44
2022-09-07T08:09:29.363Z,100853.22
2022-09-07T08:12:26.590Z,100872.19
2022-09-07T08:14:42.916Z,100834.13
2022-09-07T08:16:46.192Z,100863.88
2022-09-07T08:18:49.314Z,100738.44
2022-09-07T08:20:53.908Z,100856.81
2022-09-07T08:22:56.463Z,100782.44
2022-09-07T08:24:59.074Z,100827.91
2022-09-07T08:27:02.045Z,100847.94
2022-09-07T08:29:04.553Z,100829.63
2022-09-07T08:31:12.567Z,100847.69
2022-09-07T08:33:15.969Z,100831.06
2022-09-07T08:35:19.910Z,100851.69
2022-09-07T08:37:48.804Z,100834.50
2022-09-07T08:39:51.692Z,100823.22
2022-09-07T08:42:13.830Z,100802.94
2022-09-07T08:44:23.326Z,100870.41
2022-09-07T08:46:48.048Z,100810.97
2022-09-07T08:53:13.883Z,100840.25
2022-09-07T08:56:10.315Z,100855.06
2022-09-07T08:58:48.834Z,100815.38
2022-09-07T09:01:30.627Z,100851.03
2022-09-07T09:03:32.455Z,100838.09
2022-09-07T09:06:17.093Z,100819.38
2022-09-07T09:09:02.240Z,100857.78
2022-09-07T09:11:34.167Z,100816.16
2022-09-07T09:14:06.472Z,100830.53
2022-09-07T09:16:55.803Z,100812.75
2022-09-07T09:19:55.495Z,100853.50
2022-09-07T09:22:13.723Z,100787.81
2022-09-07T09:24:30.343Z,100854.84
2022-09-07T09:26:35.476Z,100834.75
2022-09-07T09:28:39.022Z,100800.34
2022-09-07T09:30:42.427Z,100824.50
2022-09-07T09:32:52.627Z,100830.97
2022-09-07T09:35:34.919Z,100847.00
2022-09-07T09:37:39.841Z,100841.63
2022-09-07T09:39:44.550Z,100798.19
2022-09-07T09:41:47.430Z,100823.34
2022-09-07T09:43:58.221Z,100774.19
2022-09-07T09:46:17.436Z,100792.38
2022-09-07T09:48:33.326Z,100718.63
2022-09-07T09:53:55.171Z,100793.88
2022-09-07T09:55:57.715Z,100714.41
2022-09-07T10:00:30.251Z,100828.75
2022-09-07T10:04:57.077Z,100807.06
2022-09-07T10:07:20.883Z,100823.47
2022-09-07T10:09:29.103Z,100801.59
2022-09-07T10:12:06.790Z,100816.16
2022-09-07T10:14:21.410Z,100814.16
2022-09-07T10:16:50.233Z,100745.34
2022-09-07T10:18:58.562Z,100790.63
2022-09-07T10:21:26.738Z,100767.41
2022-09-07T10:23:31.280Z,100776.28
2022-09-07T10:25:46.221Z,100713.34
2022-09-07T10:28:10.958Z,100795.16
2022-09-07T10:30:16.305Z,100788.69
2022-09-07T10:32:37.877Z,100783.50
2022-09-07T10:35:05.517Z,100797.53
2022-09-07T10:37:12.150Z,100782.41
2022-09-07T10:39:18.831Z,100798.03
2022-09-07T10:41:48.980Z,100756.81
2022-09-07T10:43:52.063Z,100783.16
2022-09-07T10:49:06.326Z,100788.34
2022-09-07T10:51:18.475Z,100790.97
2022-09-07T10:56:30.490Z,100778.28
2022-09-07T10:59:01.749Z,100777.78
2022-09-07T11:01:28.283Z,100775.38
2022-09-07T11:03:58.321Z,100772.44
2022-09-07T11:06:22.381Z,100764.56
2022-09-07T11:14:13.870Z,100725.34
2022-09-07T11:19:35.128Z,100782.03
2022-09-07T11:24:47.432Z,100679.00
2022-09-07T11:26:57.929Z,100702.03
2022-09-07T11:31:47.857Z,100744.56
2022-09-07T11:36:39.150Z,100727.91
2022-09-07T11:39:03.177Z,100770.41
2022-09-07T11:41:27.633Z,100709.59
2022-09-07T11:43:41.560Z,100776.34
2022-09-07T11:45:59.669Z,100759.06
2022-09-07T11:48:19.479Z,100755.28
2022-09-07T11:50:23.927Z,100734.81
2022-09-07T11:52:39.920Z,100705.91
2022-09-07T11:54:54.894Z,100771.97
2022-09-07T11:57:11.731Z,100673.13
2022-09-07T11:59:38.340Z,100766.41
2022-09-07T12:02:02.825Z,100763.69
2022-09-07T12:04:35.852Z,100765.06
2022-09-07T12:07:39.152Z,100724.78
2022-09-07T12:10:11.141Z,100763.53
2022-09-07T12:12:32.925Z,100649.41
2022-09-07T12:14:59.147Z,100748.91
2022-09-07T12:17:36.557Z,100747.50
2022-09-07T12:19:39.292Z,100631.75
2022-09-07T12:21:51.355Z,100741.50
2022-09-07T12:23:53.966Z,100629.41
2022-09-07T12:26:35.528Z,100737.59
2022-09-07T12:28:38.000Z,100745.03
2022-09-07T12:30:52.756Z,100735.88
2022-09-07T12:33:06.481Z,100652.66
2022-09-07T12:35:37.357Z,100729.84
2022-09-07T12:37:41.598Z,100673.34
2022-09-07T12:39:45.404Z,100722.25
2022-09-07T12:42:31.910Z,100731.16
2022-09-07T12:44:27.274Z,100727.63
2022-09-07T12:46:35.446Z,100711.47
2022-09-07T12:49:01.210Z,100685.75
2022-09-07T12:54:38.112Z,100700.75
2022-09-07T13:00:06.870Z,100698.31
2022-09-07T13:02:41.640Z,100687.75
2022-09-07T13:04:59.049Z,100691.31
2022-09-07T13:07:45.778Z,100688.97
2022-09-07T13:10:00.174Z,100581.13
2022-09-07T13:14:53.623Z,100646.81
2022-09-07T13:17:36.472Z,100683.22
2022-09-07T13:19:51.033Z,100688.81
2022-09-07T13:21:54.738Z,100671.97
2022-09-07T13:27:27.699Z,100657.63
2022-09-07T13:29:46.164Z,100662.09
2022-09-07T13:32:17.608Z,100611.06
2022-09-07T13:34:35.106Z,100658.66
2022-09-07T13:36:48.839Z,100645.09
2022-09-07T13:38:53.297Z,100642.63
2022-09-07T13:41:07.817Z,100658.25
2022-09-07T13:43:23.484Z,100569.44
2022-09-07T13:45:54.334Z,100657.75
2022-09-07T13:48:27.874Z,100655.66
2022-09-07T13:50:53.258Z,100668.81
2022-09-07T13:53:37.974Z,100662.34
2022-09-07T13:56:01.401Z,100647.50
2022-09-07T13:58:18.506Z,100587.28
2022-09-07T14:00:21.146Z,100550.91
2022-09-07T14:02:32.628Z,100651.69
2022-09-07T14:04:42.596Z,100661.63
2022-09-07T14:06:45.180Z,100623.88
2022-09-07T14:08:57.330Z,100637.19
2022-09-07T14:10:59.878Z,100549.16
2022-09-07T14:13:07.637Z,100638.66
2022-09-07T14:15:43.174Z,100636.41
2022-09-07T14:17:46.473Z,100640.41
2022-09-07T14:19:51.654Z,100653.22
2022-09-07T14:22:02.735Z,100633.41
2022-09-07T14:24:19.489Z,100598.72
2022-09-07T14:26:23.561Z,100651.13
2022-09-07T14:28:31.812Z,100620.44
2022-09-07T14:30:34.645Z,100618.50
2022-09-07T14:32:37.605Z,100528.16
2022-09-07T14:34:40.703Z,100583.50
2022-09-07T14:36:46.246Z,100610.22
2022-09-07T14:39:05.403Z,100633.13
2022-09-07T14:41:18.903Z,100612.69
2022-09-07T14:43:36.977Z,100637.16
2022-09-07T14:45:39.651Z,100621.63
2022-09-07T14:47:42.195Z,100588.53
2022-09-07T14:49:53.001Z,100614.97
2022-09-07T14:51:55.881Z,100624.66
2022-09-07T14:54:08.943Z,100579.78
2022-09-07T14:56:11.649Z,100604.03
2022-09-07T14:58:14.174Z,100640.53
2022-09-07T15:00:32.007Z,100632.78
2022-09-07T15:02:37.144Z,100641.66
2022-09-07T15:04:39.894Z,100602.03
2022-09-07T15:07:02.178Z,100588.78
2022-09-07T15:09:07.055Z,100576.34
2022-09-07T15:11:33.670Z,100629.84
2022-09-07T15:13:41.703Z,100620.97
2022-09-07T15:15:46.744Z,100609.31
2022-09-07T15:17:49.717Z,100611.13
2022-09-07T15:19:52.351Z,100592.38
2022-09-07T15:21:55.973Z,100626.38
2022-09-07T15:24:00.820Z,100552.91
2022-09-07T15:26:03.400Z,100606.09
2022-09-07T15:28:06.500Z,100596.97
2022-09-07T15:30:11.490Z,100606.44
2022-09-07T15:32:16.010Z,100596.53
2022-09-07T15:34:20.980Z,100596.53
2022-09-07T15:36:23.534Z,100596.53
2022-09-07T15:41:21.989Z,100591.47
2022-09-07T15:43:23.273Z,100533.38
2022-09-07T15:45:25.912Z,100611.38
2022-09-07T15:47:47.983Z,100611.25
2022-09-07T15:49:51.812Z,100565.75
2022-09-07T15:52:05.156Z,100561.47
2022-09-07T15:54:12.188Z,100601.44
2022-09-07T15:56:17.279Z,100581.78
2022-09-07T15:58:22.469Z,100589.72
2022-09-07T16:00:25.157Z,100580.63
2022-09-07T16:04:51.622Z,100528.19
2022-09-07T16:06:54.729Z,100473.88
2022-09-07T16:08:57.269Z,100569.47
2022-09-07T16:11:27.902Z,100558.72
2022-09-07T16:13:31.415Z,100566.72
2022-09-07T16:15:34.306Z,100537.63
2022-09-07T16:17:41.183Z,100574.03
2022-09-07T16:19:50.356Z,100548.75
2022-09-07T16:21:57.162Z,100542.81
2022-09-07T16:24:00.190Z,100548.69
2022-09-07T16:26:07.761Z,100588.22
2022-09-07T16:28:10.886Z,100576.06
2022-09-07T16:30:13.696Z,100565.31
2022-09-07T16:34:39.797Z,100584.56
2022-09-07T16:36:42.310Z,100617.13
2022-09-07T16:38:48.510Z,100617.13
2022-09-07T16:40:51.545Z,65468.00
2022-09-07T16:42:54.020Z,65468.00
2022-09-07T16:46:02.608Z,100616.22
2022-09-07T16:47:19.179Z,100603.78
2022-09-07T16:49:21.751Z,100605.19
2022-09-07T16:51:25.098Z,100599.59
2022-09-07T16:53:29.333Z,100565.75
2022-09-07T16:55:31.938Z,100520.78
2022-09-07T16:58:35.293Z,100546.22
2022-09-07T16:59:56.961Z,100626.25
2022-09-07T17:01:59.510Z,100611.38
2022-09-07T17:04:05.622Z,100571.66
2022-09-07T17:06:14.532Z,100571.66
2022-09-07T17:08:17.048Z,55789.81
2022-09-07T17:10:19.594Z,100564.41
2022-09-07T17:12:22.148Z,100564.41
2022-09-07T17:14:25.595Z,100568.75
2022-09-07T17:16:33.049Z,100568.75
2022-09-07T17:21:01.051Z,65468.00
2022-09-07T17:23:03.541Z,65468.00
2022-09-07T17:25:06.521Z,65468.00
2022-09-07T17:27:09.065Z,65468.00
2022-09-07T17:29:13.189Z,65468.00
2022-09-07T17:33:44.512Z,65468.00
2022-09-07T17:35:47.113Z,65468.00
2022-09-07T17:37:49.606Z,65468.00
2022-09-07T17:39:52.180Z,100596.63
2022-09-07T17:41:55.060Z,65468.00
2022-09-07T17:43:59.321Z,65468.00
2022-09-07T17:46:07.664Z,65468.00
2022-09-07T17:48:10.189Z,65468.00
2022-09-07T17:50:12.878Z,65468.00
2022-09-07T17:52:15.457Z,65468.00
2022-09-07T17:54:18.593Z,65468.00
2022-09-07T17:56:21.139Z,65468.00
2022-09-07T17:58:25.231Z,65468.00
2022-09-07T18:00:28.619Z,65468.00
2022-09-07T18:02:31.213Z,65468.00
2022-09-07T18:04:35.778Z,65468.00
2022-09-07T18:06:38.473Z,65468.00
2022-09-07T18:08:41.092Z,65468.00
2022-09-07T18:13:06.586Z,65468.00
2022-09-07T18:15:09.709Z,65468.00
2022-09-07T18:17:12.256Z,65468.00
2022-09-07T18:19:15.023Z,65468.00
2022-09-07T18:21:23.024Z,100596.25
2022-09-07T18:23:25.576Z,65468.00
2022-09-07T18:25:29.366Z,65468.00
2022-09-07T18:27:31.962Z,65468.00
2022-09-07T18:29:34.791Z,65468.00
2022-09-07T18:31:37.713Z,65468.00
2022-09-07T18:33:40.684Z,65468.00
2022-09-07T18:35:47.387Z,65468.00
2022-09-07T18:37:50.588Z,65468.00
2022-09-07T18:39:54.382Z,65468.00
2022-09-07T18:41:57.309Z,65468.00
2022-09-07T18:44:00.218Z,65468.00
2022-09-07T18:46:10.990Z,65468.00
2022-09-07T18:48:14.173Z,65468.00
2022-09-07T18:50:17.650Z,65468.00
2022-09-07T18:54:43.899Z,65468.00
2022-09-07T18:56:46.565Z,65468.00
2022-09-07T18:58:49.445Z,65468.00
2022-09-07T19:00:57.681Z,65468.00
2022-09-07T19:03:00.318Z,65468.00
2022-09-07T19:07:29.588Z,65468.00
2022-09-07T19:09:32.639Z,65468.00
2022-09-07T19:11:35.167Z,65468.00
2022-09-07T19:13:39.002Z,65468.00
2022-09-07T19:15:41.568Z,65468.00
2022-09-07T19:17:44.258Z,65468.00
2022-09-07T19:19:48.378Z,65468.00
2022-09-07T19:21:50.964Z,65468.00
2022-09-07T19:24:02.569Z,65468.00
2022-09-07T19:26:07.065Z,65468.00
2022-09-07T19:28:09.702Z,65468.00
2022-09-07T19:30:12.603Z,65468.00
2022-09-07T19:32:15.175Z,65468.00
2022-09-07T19:34:18.126Z,65468.00
2022-09-07T19:36:20.665Z,65468.00
2022-09-07T19:38:23.181Z,65468.00
2022-09-07T19:40:25.818Z,65468.00
2022-09-07T19:42:28.471Z,65468.00
2022-09-07T19:44:32.086Z,65468.00
2022-09-07T19:46:34.642Z,65468.00
2022-09-07T19:48:37.918Z,65468.00
2022-09-07T19:50:40.859Z,65468.00
2022-09-07T19:52:43.494Z,65468.00
2022-09-07T19:54:46.033Z,65468.00
2022-09-07T19:56:48.729Z,65468.00
2022-09-07T19:58:51.312Z,65468.00
2022-09-07T20:00:53.888Z,65468.00
2022-09-07T20:02:56.440Z,65468.00
2022-09-07T20:04:59.051Z,65468.00
2022-09-07T20:07:01.953Z,65468.00
2022-09-07T20:09:05.272Z,65468.00
2022-09-07T20:11:10.254Z,65468.00
2022-09-07T20:13:12.793Z,65468.00
2022-09-07T20:15:15.434Z,65468.00
2022-09-07T20:17:18.097Z,65468.00
2022-09-07T20:19:20.691Z,65468.00
2022-09-07T20:21:26.061Z,65468.00
2022-09-07T20:23:28.929Z,65468.00
2022-09-07T20:25:31.506Z,65468.00
2022-09-07T20:27:37.605Z,65468.00
2022-09-07T20:29:40.896Z,65468.00
2022-09-07T20:31:44.207Z,65468.00
2022-09-07T20:33:49.120Z,65468.00
2022-09-07T20:35:51.724Z,65468.00
2022-09-07T20:37:54.277Z,65468.00
2022-09-07T20:39:56.885Z,65468.00
2022-09-07T20:41:59.500Z,65468.00
2022-09-07T20:44:04.489Z,65468.00
2022-09-07T20:46:09.714Z,65468.00
2022-09-07T20:48:12.669Z,65468.00
2022-09-07T20:50:15.258Z,65468.00
2022-09-07T20:52:17.748Z,65468.00
2022-09-07T20:54:20.554Z,65468.00
2022-09-07T20:56:25.987Z,100596.25
2022-09-07T20:58:29.194Z,65468.00
2022-09-07T21:00:32.427Z,65468.00
2022-09-07T21:02:35.856Z,65468.00
2022-09-07T21:04:38.357Z,65468.00
2022-09-07T21:06:40.915Z,65468.00
2022-09-07T21:08:45.813Z,65468.00
2022-09-07T21:10:48.457Z,65468.00
2022-09-07T21:12:51.065Z,65468.00
2022-09-07T21:14:53.560Z,65468.00
2022-09-07T21:16:56.086Z,65468.00
2022-09-07T21:19:00.752Z,65468.00
2022-09-07T21:21:19.140Z,65468.00
2022-09-07T21:23:25.737Z,65468.00
2022-09-07T21:25:28.249Z,65468.00
2022-09-07T21:27:38.522Z,65468.00
2022-09-07T21:29:41.465Z,65468.00
2022-09-07T21:31:44.186Z,65468.00
2022-09-07T21:33:46.749Z,65468.00
2022-09-07T21:35:49.253Z,65468.00
2022-09-07T21:37:52.672Z,65468.00
2022-09-07T21:39:55.313Z,65468.00
2022-09-07T21:41:57.893Z,65468.00
2022-09-07T21:44:02.787Z,65468.00
2022-09-07T21:46:13.486Z,65468.00
2022-09-07T21:48:16.081Z,65468.00
2022-09-07T21:50:18.598Z,65468.00
2022-09-07T21:52:21.151Z,65468.00
2022-09-07T21:54:23.703Z,65468.00
2022-09-07T21:56:28.662Z,65468.00
2022-09-07T21:58:31.945Z,65468.00
2022-09-07T22:00:34.521Z,65468.00
2022-09-07T22:02:37.144Z,65468.00
2022-09-07T22:04:39.644Z,65468.00
2022-09-07T22:06:43.975Z,65468.00
2022-09-07T22:08:46.766Z,65468.00
2022-09-07T22:10:49.320Z,65468.00
2022-09-07T22:12:51.851Z,65468.00
2022-09-07T22:14:54.823Z,65468.00
2022-09-07T22:16:57.564Z,65468.00
2022-09-07T22:19:00.536Z,65468.00
2022-09-07T22:21:15.369Z,65468.00
2022-09-07T22:23:17.874Z,65468.00
2022-09-07T22:25:20.410Z,65468.00
2022-09-07T22:27:22.998Z,65468.00
2022-09-07T22:29:25.685Z,65468.00
2022-09-07T22:31:31.775Z,65468.00
2022-09-07T22:33:34.503Z,65468.00
2022-09-07T22:35:37.092Z,65468.00
2022-09-07T22:37:39.661Z,65468.00
2022-09-07T22:39:42.310Z,65468.00
2022-09-07T22:41:47.169Z,65468.00
2022-09-07T22:43:51.116Z,65468.00
2022-09-07T22:45:53.706Z,65468.00
2022-09-07T22:47:56.247Z,65468.00
2022-09-07T22:49:59.470Z,65468.00
2022-09-07T22:52:02.273Z,65468.00
2022-09-07T22:54:05.379Z,65468.00
2022-09-07T22:56:15.116Z,65468.00
2022-09-07T22:58:17.736Z,65468.00
2022-09-07T23:00:20.311Z,65468.00
2022-09-07T23:02:22.850Z,65468.00
2022-09-07T23:04:30.968Z,65468.00
2022-09-07T23:06:38.604Z,65468.00
2022-09-07T23:08:41.153Z,65468.00
2022-09-07T23:10:43.779Z,65468.00
2022-09-07T23:12:46.324Z,65468.00
2022-09-07T23:14:49.034Z,65468.00
2022-09-07T23:16:51.661Z,65468.00
2022-09-07T23:18:59.028Z,65468.00
2022-09-07T23:21:02.682Z,65468.00
2022-09-07T23:23:05.199Z,65468.00
2022-09-07T23:25:08.015Z,65468.00
2022-09-07T23:27:10.557Z,65468.00
2022-09-07T23:29:14.579Z,65468.00
2022-09-07T23:31:17.171Z,65468.00
2022-09-07T23:33:19.707Z,65468.00
2022-09-07T23:35:22.335Z,65468.00
2022-09-07T23:37:24.849Z,65468.00
2022-09-07T23:39:27.429Z,65468.00
2022-09-07T23:41:30.080Z,65468.00
2022-09-07T23:43:32.753Z,65468.00
2022-09-07T23:45:35.699Z,65468.00
2022-09-07T23:47:38.342Z,65468.00
2022-09-07T23:49:41.297Z,65468.00
2022-09-07T23:51:43.776Z,65468.00
2022-09-07T23:53:46.435Z,65468.00
2022-09-07T23:55:51.554Z,65468.00
2022-09-07T23:57:54.215Z,65468.00
2022-09-07T23:59:56.744Z,65468.00
